createdAt,value
2019-05-25T00:00:30.639Z,0.00
2019-05-25T00:01:30.568Z,0.00
2019-05-25T00:02:30.489Z,0.00
2019-05-25T00:03:30.413Z,0.00
2019-05-25T00:04:30.338Z,0.00
2019-05-25T00:05:30.267Z,0.00
2019-05-25T00:06:30.225Z,0.00
2019-05-25T00:07:30.112Z,0.00
2019-05-25T00:08:30.040Z,0.00
2019-05-25T00:09:29.962Z,0.00
2019-05-25T00:10:29.888Z,0.00
2019-05-25T00:11:29.811Z,0.00
2019-05-25T00:12:29.836Z,0.00
2019-05-25T00:13:29.668Z,0.00
2019-05-25T00:14:29.585Z,0.00
2019-05-25T00:15:29.514Z,0.00
2019-05-25T00:16:29.435Z,0.00
2019-05-25T00:17:29.361Z,0.00
2019-05-25T00:18:29.284Z,0.00
2019-05-25T00:19:29.211Z,0.00
2019-05-25T00:20:29.143Z,0.00
2019-05-25T00:21:29.062Z,0.00
2019-05-25T00:22:28.985Z,0.00
2019-05-25T00:23:28.911Z,0.00
2019-05-25T00:24:28.837Z,0.00
2019-05-25T00:25:28.761Z,0.00
2019-05-25T00:26:28.684Z,0.00
2019-05-25T00:27:28.609Z,0.00
2019-05-25T00:28:28.535Z,0.00
2019-05-25T00:29:28.530Z,0.00
2019-05-25T00:30:28.384Z,0.00
2019-05-25T00:31:28.317Z,0.00
2019-05-25T00:32:28.234Z,0.00
2019-05-25T00:33:28.160Z,0.00
2019-05-25T00:34:28.083Z,0.00
2019-05-25T00:35:28.009Z,0.00
2019-05-25T00:36:27.936Z,0.00
2019-05-25T00:37:27.859Z,0.00
2019-05-25T00:38:27.783Z,0.00
2019-05-25T00:39:27.722Z,0.00
2019-05-25T00:40:27.633Z,0.00
2019-05-25T00:41:27.559Z,0.00
2019-05-25T00:42:27.494Z,0.00
2019-05-25T00:43:27.409Z,0.00
2019-05-25T00:44:27.347Z,0.00
2019-05-25T00:45:27.259Z,0.00
2019-05-25T00:46:27.183Z,0.00
2019-05-25T00:47:27.107Z,0.00
2019-05-25T00:48:27.033Z,0.00
2019-05-25T00:49:26.959Z,0.00
2019-05-25T00:50:26.881Z,0.00
2019-05-25T00:51:26.807Z,0.00
2019-05-25T00:52:26.731Z,0.00
2019-05-25T00:53:26.656Z,0.00
2019-05-25T00:54:28.261Z,0.00
2019-05-25T00:55:26.504Z,0.00
2019-05-25T00:56:26.429Z,0.00
2019-05-25T00:57:26.354Z,0.00
2019-05-25T00:58:26.279Z,0.00
2019-05-25T00:59:26.207Z,0.00
2019-05-25T01:00:26.127Z,0.00
2019-05-25T01:01:26.053Z,0.00
2019-05-25T01:02:25.977Z,0.00
2019-05-25T01:03:25.903Z,0.00
2019-05-25T01:04:25.828Z,0.00
2019-05-25T01:05:25.752Z,0.00
2019-05-25T01:06:25.679Z,0.00
2019-05-25T01:07:25.602Z,0.00
2019-05-25T01:08:25.527Z,0.00
2019-05-25T01:09:25.451Z,0.00
2019-05-25T01:10:25.374Z,0.00
2019-05-25T01:11:25.405Z,0.00
2019-05-25T01:12:25.222Z,0.00
2019-05-25T01:13:25.150Z,0.00
2019-05-25T01:14:25.073Z,0.00
2019-05-25T01:15:24.999Z,0.00
2019-05-25T01:16:24.926Z,0.00
2019-05-25T01:17:24.848Z,0.00
2019-05-25T01:18:24.778Z,0.00
2019-05-25T01:19:24.698Z,0.00
2019-05-25T01:20:24.621Z,0.00
2019-05-25T01:21:24.545Z,0.00
2019-05-25T01:22:24.470Z,0.00
2019-05-25T01:23:24.395Z,0.00
2019-05-25T01:24:24.320Z,0.00
2019-05-25T01:25:24.245Z,0.00
2019-05-25T01:26:24.169Z,0.00
2019-05-25T01:27:24.094Z,0.00
2019-05-25T01:28:24.020Z,0.00
2019-05-25T01:29:23.944Z,0.00
2019-05-25T01:30:23.867Z,0.00
2019-05-25T01:31:23.793Z,0.00
2019-05-25T01:32:23.831Z,0.00
2019-05-25T01:33:23.643Z,0.00
2019-05-25T01:34:23.566Z,0.00
2019-05-25T01:35:23.491Z,0.00
2019-05-25T01:36:23.416Z,0.00
2019-05-25T01:37:23.358Z,0.00
2019-05-25T01:38:23.265Z,0.00
2019-05-25T01:39:23.189Z,0.00
2019-05-25T01:40:23.114Z,0.00
2019-05-25T01:41:23.041Z,0.00
2019-05-25T01:42:22.964Z,0.00
2019-05-25T01:43:22.889Z,0.00
2019-05-25T01:44:22.812Z,0.00
2019-05-25T01:45:22.737Z,0.00
2019-05-25T01:46:22.662Z,0.00
2019-05-25T01:47:22.587Z,0.00
2019-05-25T01:48:22.513Z,0.00
2019-05-25T01:49:22.436Z,0.00
2019-05-25T01:50:22.363Z,0.00
2019-05-25T01:51:22.285Z,0.00
2019-05-25T01:52:22.210Z,0.00
2019-05-25T01:53:22.237Z,0.00
2019-05-25T01:54:22.064Z,0.00
2019-05-25T01:55:21.984Z,0.00
2019-05-25T01:56:21.911Z,0.00
2019-05-25T01:57:21.834Z,0.00
2019-05-25T01:58:21.859Z,0.00
2019-05-25T01:59:21.685Z,0.00
2019-05-25T02:00:21.610Z,0.00
2019-05-25T02:01:21.536Z,0.00
2019-05-25T02:02:21.459Z,0.00
2019-05-25T02:03:21.499Z,0.00
2019-05-25T02:04:21.309Z,0.00
2019-05-25T02:05:21.235Z,0.00
2019-05-25T02:06:21.159Z,0.00
2019-05-25T02:07:21.084Z,0.00
2019-05-25T02:08:21.010Z,0.00
2019-05-25T02:09:20.934Z,0.00
2019-05-25T02:10:20.857Z,0.00
2019-05-25T02:11:20.783Z,0.00
2019-05-25T02:12:20.714Z,0.00
2019-05-25T02:13:20.634Z,0.00
2019-05-25T02:14:20.559Z,0.00
2019-05-25T02:15:20.482Z,0.00
2019-05-25T02:16:20.417Z,0.00
2019-05-25T02:17:20.333Z,0.00
2019-05-25T02:18:20.258Z,0.00
2019-05-25T02:19:20.183Z,0.00
2019-05-25T02:20:20.115Z,0.00
2019-05-25T02:21:20.037Z,0.00
2019-05-25T02:22:19.959Z,0.00
2019-05-25T02:23:19.884Z,0.00
2019-05-25T02:24:19.809Z,0.00
2019-05-25T02:25:19.734Z,0.00
2019-05-25T02:26:19.660Z,0.00
2019-05-25T02:27:19.583Z,0.00
2019-05-25T02:28:19.511Z,0.00
2019-05-25T02:29:19.484Z,0.00
2019-05-25T02:30:19.429Z,0.00
2019-05-25T02:31:19.289Z,0.00
2019-05-25T02:32:19.208Z,0.00
2019-05-25T02:33:19.135Z,0.00
2019-05-25T02:34:19.078Z,0.00
2019-05-25T02:35:19.083Z,0.00
2019-05-25T02:36:20.749Z,0.00
2019-05-25T02:37:18.835Z,0.00
2019-05-25T02:38:18.760Z,0.00
2019-05-25T02:39:18.686Z,0.00
2019-05-25T02:40:18.611Z,0.00
2019-05-25T02:41:18.535Z,0.00
2019-05-25T02:42:18.458Z,0.00
2019-05-25T02:43:18.385Z,0.00
2019-05-25T02:44:18.310Z,0.00
2019-05-25T02:45:18.237Z,0.00
2019-05-25T02:46:18.181Z,0.00
2019-05-25T02:47:18.099Z,0.00
2019-05-25T02:48:18.054Z,0.00
2019-05-25T02:49:17.934Z,0.00
2019-05-25T02:50:17.865Z,0.00
2019-05-25T02:51:17.783Z,0.00
2019-05-25T02:52:17.738Z,0.00
2019-05-25T02:53:17.632Z,0.00
2019-05-25T02:54:17.557Z,0.00
2019-05-25T02:55:32.961Z,0.00
2019-05-25T02:56:17.408Z,0.00
2019-05-25T02:57:17.333Z,0.00
2019-05-25T02:58:17.255Z,0.00
2019-05-25T02:59:17.180Z,0.00
2019-05-25T03:00:17.105Z,0.00
2019-05-25T03:01:17.032Z,0.00
2019-05-25T03:02:16.954Z,0.00
2019-05-25T03:03:16.881Z,0.00
2019-05-25T03:04:16.802Z,0.00
2019-05-25T03:05:16.731Z,0.00
2019-05-25T03:06:16.705Z,4.00
2019-05-25T03:07:16.577Z,4.00
2019-05-25T03:08:16.501Z,4.00
2019-05-25T03:09:16.427Z,0.00
2019-05-25T03:10:16.353Z,0.00
2019-05-25T03:11:16.278Z,4.00
2019-05-25T03:12:16.203Z,4.00
2019-05-25T03:13:16.126Z,4.00
2019-05-25T03:14:16.052Z,4.00
2019-05-25T03:15:15.980Z,8.00
2019-05-25T03:16:15.903Z,4.00
2019-05-25T03:17:15.824Z,8.00
2019-05-25T03:18:15.748Z,8.00
2019-05-25T03:19:15.674Z,8.00
2019-05-25T03:20:15.599Z,12.00
2019-05-25T03:21:15.523Z,12.00
2019-05-25T03:22:15.451Z,12.00
2019-05-25T03:23:15.379Z,16.00
2019-05-25T03:24:15.298Z,20.00
2019-05-25T03:25:15.224Z,20.00
2019-05-25T03:26:15.149Z,24.00
2019-05-25T03:27:15.172Z,24.00
2019-05-25T03:28:15.004Z,28.00
2019-05-25T03:29:14.923Z,28.00
2019-05-25T03:30:14.852Z,24.00
2019-05-25T03:31:14.774Z,24.00
2019-05-25T03:32:14.697Z,24.00
2019-05-25T03:33:14.623Z,24.00
2019-05-25T03:34:14.548Z,24.00
2019-05-25T03:35:14.498Z,24.00
2019-05-25T03:36:14.403Z,32.00
2019-05-25T03:37:14.323Z,32.00
2019-05-25T03:38:14.252Z,36.00
2019-05-25T03:39:14.171Z,44.00
2019-05-25T03:40:14.096Z,48.00
2019-05-25T03:41:14.021Z,52.00
2019-05-25T03:42:13.946Z,52.00
2019-05-25T03:43:13.968Z,52.00
2019-05-25T03:44:13.794Z,56.00
2019-05-25T03:45:13.719Z,60.00
2019-05-25T03:46:13.644Z,60.00
2019-05-25T03:47:13.568Z,64.00
2019-05-25T03:48:13.492Z,68.00
2019-05-25T03:49:13.419Z,68.00
2019-05-25T03:50:13.342Z,68.00
2019-05-25T03:51:13.269Z,64.00
2019-05-25T03:52:13.191Z,56.00
2019-05-25T03:53:13.117Z,56.00
2019-05-25T03:54:13.141Z,68.00
2019-05-25T03:55:12.966Z,76.00
2019-05-25T03:56:12.891Z,88.00
2019-05-25T03:57:12.815Z,96.00
2019-05-25T03:58:12.739Z,108.00
2019-05-25T03:59:12.667Z,120.00
2019-05-25T04:00:12.590Z,128.00
2019-05-25T04:01:12.514Z,136.00
2019-05-25T04:02:12.438Z,148.00
2019-05-25T04:03:12.363Z,156.00
2019-05-25T04:04:12.288Z,172.00
2019-05-25T04:05:12.213Z,184.00
2019-05-25T04:06:12.139Z,204.00
2019-05-25T04:07:12.063Z,228.00
2019-05-25T04:08:11.991Z,244.00
2019-05-25T04:09:11.912Z,272.00
2019-05-25T04:10:11.836Z,300.00
2019-05-25T04:11:11.761Z,336.00
2019-05-25T04:12:11.685Z,368.00
2019-05-25T04:13:11.610Z,404.00
2019-05-25T04:14:11.535Z,432.00
2019-05-25T04:15:11.460Z,460.00
2019-05-25T04:16:11.385Z,484.00
2019-05-25T04:17:11.309Z,508.00
2019-05-25T04:18:11.233Z,528.00
2019-05-25T04:19:11.159Z,556.00
2019-05-25T04:20:11.082Z,584.00
2019-05-25T04:21:11.008Z,620.00
2019-05-25T04:22:10.933Z,656.00
2019-05-25T04:23:10.856Z,684.00
2019-05-25T04:24:10.781Z,700.00
2019-05-25T04:25:10.714Z,720.00
2019-05-25T04:26:21.905Z,748.00
2019-05-25T04:27:10.558Z,788.00
2019-05-25T04:28:10.486Z,844.00
2019-05-25T04:29:10.407Z,896.00
2019-05-25T04:30:10.331Z,940.00
2019-05-25T04:31:10.291Z,984.00
2019-05-25T04:32:10.181Z,1028.00
2019-05-25T04:33:10.106Z,1060.00
2019-05-25T04:34:10.030Z,1080.00
2019-05-25T04:35:09.955Z,1076.00
2019-05-25T04:36:09.881Z,1052.00
2019-05-25T04:37:09.805Z,1036.00
2019-05-25T04:38:09.730Z,1036.00
2019-05-25T04:39:09.655Z,1056.00
2019-05-25T04:40:09.580Z,1076.00
2019-05-25T04:41:09.511Z,1084.00
2019-05-25T04:42:09.429Z,1088.00
2019-05-25T04:43:09.355Z,1124.00
2019-05-25T04:44:09.280Z,1156.00
2019-05-25T04:45:09.206Z,1156.00
2019-05-25T04:46:09.130Z,1168.00
2019-05-25T04:47:09.057Z,1192.00
2019-05-25T04:48:08.979Z,1212.00
2019-05-25T04:49:08.905Z,1212.00
2019-05-25T04:50:08.839Z,1188.00
2019-05-25T04:51:08.758Z,1172.00
2019-05-25T04:52:08.681Z,1168.00
2019-05-25T04:53:08.605Z,1200.00
2019-05-25T04:54:08.529Z,1252.00
2019-05-25T04:55:08.456Z,1316.00
2019-05-25T04:56:08.481Z,1356.00
2019-05-25T04:57:08.725Z,1376.00
2019-05-25T04:58:08.231Z,1388.00
2019-05-25T04:59:08.155Z,1412.00
2019-05-25T05:00:08.085Z,1440.00
2019-05-25T05:01:08.007Z,1496.00
2019-05-25T05:02:07.932Z,1544.00
2019-05-25T05:03:07.855Z,1620.00
2019-05-25T05:04:07.782Z,1692.00
2019-05-25T05:05:07.711Z,1768.00
2019-05-25T05:06:07.637Z,1840.00
2019-05-25T05:07:07.556Z,1896.00
2019-05-25T05:08:07.482Z,1968.00
2019-05-25T05:09:07.407Z,2028.00
2019-05-25T05:10:07.338Z,2084.00
2019-05-25T05:11:07.262Z,2120.00
2019-05-25T05:12:07.183Z,2116.00
2019-05-25T05:13:07.112Z,2084.00
2019-05-25T05:14:07.032Z,2084.00
2019-05-25T05:15:06.964Z,2100.00
2019-05-25T05:16:06.890Z,2112.00
2019-05-25T05:17:06.811Z,2128.00
2019-05-25T05:18:06.734Z,2224.00
2019-05-25T05:19:06.660Z,2400.00
2019-05-25T05:20:06.586Z,2540.00
2019-05-25T05:21:06.513Z,2620.00
2019-05-25T05:22:06.440Z,2660.00
2019-05-25T05:23:06.391Z,2640.00
2019-05-25T05:24:06.292Z,2628.00
2019-05-25T05:25:06.215Z,2680.00
2019-05-25T05:26:06.197Z,2696.00
2019-05-25T05:27:06.070Z,2584.00
2019-05-25T05:28:05.992Z,2344.00
2019-05-25T05:29:05.919Z,1976.00
2019-05-25T05:30:05.843Z,1648.00
2019-05-25T05:31:05.773Z,1508.00
2019-05-25T05:32:05.697Z,1488.00
2019-05-25T05:33:05.622Z,1516.00
2019-05-25T05:34:05.548Z,1584.00
2019-05-25T05:35:05.477Z,1640.00
2019-05-25T05:36:05.399Z,1676.00
2019-05-25T05:37:05.326Z,1732.00
2019-05-25T05:38:05.250Z,1816.00
2019-05-25T05:39:05.178Z,1888.00
2019-05-25T05:40:05.111Z,1948.00
2019-05-25T05:41:05.031Z,1996.00
2019-05-25T05:42:04.956Z,2036.00
2019-05-25T05:43:04.881Z,2084.00
2019-05-25T05:44:04.809Z,2152.00
2019-05-25T05:45:04.741Z,2232.00
2019-05-25T05:46:04.660Z,2300.00
2019-05-25T05:47:04.694Z,2336.00
2019-05-25T05:48:04.514Z,2408.00
2019-05-25T05:49:04.439Z,2500.00
2019-05-25T05:50:04.366Z,2524.00
2019-05-25T05:51:04.291Z,2512.00
2019-05-25T05:52:04.269Z,2480.00
2019-05-25T05:53:04.169Z,2440.00
2019-05-25T05:54:04.069Z,2404.00
2019-05-25T05:55:03.997Z,2408.00
2019-05-25T05:56:03.925Z,2400.00
2019-05-25T05:57:12.296Z,2356.00
2019-05-25T05:58:03.773Z,2272.00
2019-05-25T05:59:03.701Z,2192.00
2019-05-25T06:00:03.627Z,2124.00
2019-05-25T06:01:03.555Z,2088.00
2019-05-25T06:02:03.508Z,2092.00
2019-05-25T06:03:03.405Z,2136.00
2019-05-25T06:04:03.334Z,2188.00
2019-05-25T06:05:03.627Z,2280.00
2019-05-25T06:06:03.184Z,2376.00
2019-05-25T06:07:03.113Z,2428.00
2019-05-25T06:08:03.039Z,2396.00
2019-05-25T06:09:02.965Z,2408.00
2019-05-25T06:10:02.893Z,2484.00
2019-05-25T06:11:02.817Z,2628.00
2019-05-25T06:12:02.742Z,2688.00
2019-05-25T06:13:02.670Z,2756.00
2019-05-25T06:14:02.598Z,2868.00
2019-05-25T06:15:02.635Z,2904.00
2019-05-25T06:16:02.451Z,2880.00
2019-05-25T06:17:02.375Z,2856.00
2019-05-25T06:18:02.406Z,2796.00
2019-05-25T06:19:02.229Z,2748.00
2019-05-25T06:20:02.155Z,2816.00
2019-05-25T06:21:02.082Z,2816.00
2019-05-25T06:22:02.018Z,2776.00
2019-05-25T06:23:01.934Z,2720.00
2019-05-25T06:24:01.861Z,2616.00
2019-05-25T06:25:01.788Z,2536.00
2019-05-25T06:26:01.713Z,2524.00
2019-05-25T06:27:01.641Z,2588.00
2019-05-25T06:28:01.566Z,2720.00
2019-05-25T06:29:01.493Z,2836.00
2019-05-25T06:30:01.418Z,2972.00
2019-05-25T06:31:01.406Z,2988.00
2019-05-25T06:32:01.277Z,2932.00
2019-05-25T06:33:01.200Z,2980.00
2019-05-25T06:34:01.127Z,3088.00
2019-05-25T06:35:01.051Z,3224.00
2019-05-25T06:36:00.980Z,3424.00
2019-05-25T06:37:00.904Z,3708.00
2019-05-25T06:38:00.831Z,4044.00
2019-05-25T06:39:00.758Z,4196.00
2019-05-25T06:40:00.685Z,4040.00
2019-05-25T06:41:00.616Z,3816.00
2019-05-25T06:42:00.537Z,3676.00
2019-05-25T06:43:00.463Z,3552.00
2019-05-25T06:44:00.391Z,3380.00
2019-05-25T06:45:00.316Z,3236.00
2019-05-25T06:46:00.243Z,3228.00
2019-05-25T06:47:00.171Z,3296.00
2019-05-25T06:48:00.095Z,3396.00
2019-05-25T06:49:00.025Z,3556.00
2019-05-25T06:49:59.949Z,3716.00
2019-05-25T06:50:59.875Z,3988.00
2019-05-25T06:51:59.802Z,4388.00
2019-05-25T06:52:59.734Z,4908.00
2019-05-25T06:53:59.653Z,5080.00
2019-05-25T06:54:59.580Z,5192.00
2019-05-25T06:55:59.508Z,5436.00
2019-05-25T06:56:59.435Z,5596.00
2019-05-25T06:57:59.362Z,5744.00
2019-05-25T06:58:59.391Z,5972.00
2019-05-25T06:59:59.213Z,6124.00
2019-05-25T07:00:59.141Z,6352.00
2019-05-25T07:01:59.066Z,6344.00
2019-05-25T07:02:58.993Z,6096.00
2019-05-25T07:03:58.920Z,5780.00
2019-05-25T07:04:58.846Z,5924.00
2019-05-25T07:05:58.775Z,5972.00
2019-05-25T07:06:58.699Z,5956.00
2019-05-25T07:07:58.626Z,5968.00
2019-05-25T07:08:58.555Z,6136.00
2019-05-25T07:09:58.480Z,6448.00
2019-05-25T07:10:58.407Z,6756.00
2019-05-25T07:11:58.334Z,6968.00
2019-05-25T07:12:58.259Z,6828.00
2019-05-25T07:13:58.186Z,6848.00
2019-05-25T07:14:58.136Z,6968.00
2019-05-25T07:15:58.041Z,7032.00
2019-05-25T07:16:57.968Z,7300.00
2019-05-25T07:17:57.898Z,7440.00
2019-05-25T07:18:57.920Z,7424.00
2019-05-25T07:19:57.749Z,7236.00
2019-05-25T07:20:57.677Z,7220.00
2019-05-25T07:21:57.602Z,7356.00
2019-05-25T07:22:57.528Z,7180.00
2019-05-25T07:23:57.456Z,7048.00
2019-05-25T07:24:57.383Z,6916.00
2019-05-25T07:25:57.311Z,6768.00
2019-05-25T07:26:57.240Z,6644.00
2019-05-25T07:28:00.160Z,6624.00
2019-05-25T07:28:57.093Z,6492.00
2019-05-25T07:29:57.020Z,6580.00
2019-05-25T07:30:56.948Z,6776.00
2019-05-25T07:31:56.875Z,7124.00
2019-05-25T07:32:56.847Z,7336.00
2019-05-25T07:33:56.731Z,7296.00
2019-05-25T07:34:56.659Z,7268.00
2019-05-25T07:35:56.588Z,7208.00
2019-05-25T07:36:56.512Z,7288.00
2019-05-25T07:37:56.444Z,7032.00
2019-05-25T07:38:56.368Z,6932.00
2019-05-25T07:39:56.296Z,6656.00
2019-05-25T07:40:56.225Z,6184.00
2019-05-25T07:41:56.157Z,5956.00
2019-05-25T07:42:56.080Z,6060.00
2019-05-25T07:43:56.008Z,6228.00
2019-05-25T07:44:55.935Z,6504.00
2019-05-25T07:45:55.865Z,6768.00
2019-05-25T07:46:55.793Z,7108.00
2019-05-25T07:47:55.737Z,7336.00
2019-05-25T07:48:55.648Z,7740.00
2019-05-25T07:49:55.575Z,8092.00
2019-05-25T07:50:55.503Z,7864.00
2019-05-25T07:51:55.433Z,7104.00
2019-05-25T07:52:55.359Z,6456.00
2019-05-25T07:53:55.287Z,6160.00
2019-05-25T07:54:55.216Z,5904.00
2019-05-25T07:55:55.143Z,5876.00
2019-05-25T07:56:55.070Z,5624.00
2019-05-25T07:57:54.998Z,5344.00
2019-05-25T07:58:54.925Z,5088.00
2019-05-25T07:59:54.855Z,4936.00
2019-05-25T08:00:54.782Z,4916.00
2019-05-25T08:01:54.709Z,5140.00
2019-05-25T08:02:54.638Z,5416.00
2019-05-25T08:03:54.567Z,5648.00
2019-05-25T08:04:54.493Z,5864.00
2019-05-25T08:05:54.421Z,5960.00
2019-05-25T08:06:54.442Z,5820.00
2019-05-25T08:07:54.279Z,5568.00
2019-05-25T08:08:54.205Z,5292.00
2019-05-25T08:09:54.139Z,4836.00
2019-05-25T08:10:54.063Z,4412.00
2019-05-25T08:11:53.990Z,4076.00
2019-05-25T08:12:53.922Z,4004.00
2019-05-25T08:13:53.843Z,3912.00
2019-05-25T08:14:53.773Z,3904.00
2019-05-25T08:15:53.701Z,3940.00
2019-05-25T08:16:53.628Z,4028.00
2019-05-25T08:17:53.556Z,4096.00
2019-05-25T08:18:53.483Z,4072.00
2019-05-25T08:19:53.411Z,4088.00
2019-05-25T08:20:53.340Z,4216.00
2019-05-25T08:21:53.266Z,4440.00
2019-05-25T08:22:53.195Z,4680.00
2019-05-25T08:23:53.127Z,4768.00
2019-05-25T08:24:53.052Z,4868.00
2019-05-25T08:25:52.978Z,5004.00
2019-05-25T08:26:52.906Z,5084.00
2019-05-25T08:27:52.835Z,5084.00
2019-05-25T08:28:52.768Z,5080.00
2019-05-25T08:29:52.689Z,5080.00
2019-05-25T08:30:52.620Z,5080.00
2019-05-25T08:31:52.545Z,5108.00
2019-05-25T08:32:52.473Z,5160.00
2019-05-25T08:33:52.399Z,5200.00
2019-05-25T08:34:52.330Z,5340.00
2019-05-25T08:35:52.257Z,5512.00
2019-05-25T08:36:52.184Z,5520.00
2019-05-25T08:37:52.112Z,5480.00
2019-05-25T08:38:54.820Z,5212.00
2019-05-25T08:39:51.968Z,5004.00
2019-05-25T08:40:51.895Z,4772.00
2019-05-25T08:41:51.822Z,4580.00
2019-05-25T08:42:51.754Z,4468.00
2019-05-25T08:43:51.678Z,4424.00
2019-05-25T08:44:51.607Z,4436.00
2019-05-25T08:45:51.535Z,4520.00
2019-05-25T08:46:51.462Z,4736.00
2019-05-25T08:47:51.499Z,4820.00
2019-05-25T08:48:51.320Z,5048.00
2019-05-25T08:49:51.247Z,5060.00
2019-05-25T08:50:51.174Z,5208.00
2019-05-25T08:51:51.103Z,5068.00
2019-05-25T08:52:51.030Z,5168.00
2019-05-25T08:53:50.965Z,5232.00
2019-05-25T08:54:50.886Z,5240.00
2019-05-25T08:55:50.831Z,5336.00
2019-05-25T08:56:50.790Z,5384.00
2019-05-25T08:57:50.670Z,5416.00
2019-05-25T08:58:50.597Z,5496.00
2019-05-25T08:59:50.527Z,5644.00
2019-05-25T09:00:50.458Z,5852.00
2019-05-25T09:01:50.478Z,6052.00
2019-05-25T09:02:50.310Z,6288.00
2019-05-25T09:03:50.239Z,6524.00
2019-05-25T09:04:50.166Z,6656.00
2019-05-25T09:05:50.093Z,6728.00
2019-05-25T09:06:50.025Z,6796.00
2019-05-25T09:07:49.951Z,6992.00
2019-05-25T09:08:49.879Z,7308.00
2019-05-25T09:09:49.807Z,7724.00
2019-05-25T09:10:49.736Z,8064.00
2019-05-25T09:11:49.664Z,8208.00
2019-05-25T09:12:49.638Z,8024.00
2019-05-25T09:13:49.573Z,7836.00
2019-05-25T09:14:49.452Z,7524.00
2019-05-25T09:15:49.381Z,7324.00
2019-05-25T09:16:49.306Z,7096.00
2019-05-25T09:17:49.235Z,7268.00
2019-05-25T09:18:49.280Z,7568.00
2019-05-25T09:19:49.092Z,8016.00
2019-05-25T09:20:49.024Z,8000.00
2019-05-25T09:22:02.225Z,7840.00
2019-05-25T09:22:48.879Z,7632.00
2019-05-25T09:23:49.035Z,7380.00
2019-05-25T09:24:48.738Z,7376.00
2019-05-25T09:25:48.664Z,7320.00
2019-05-25T09:26:48.595Z,7308.00
2019-05-25T09:27:48.526Z,6800.00
2019-05-25T09:29:03.128Z,6440.00
2019-05-25T09:29:48.380Z,6072.00
2019-05-25T09:30:48.311Z,6052.00
2019-05-25T09:31:48.240Z,6036.00
2019-05-25T09:32:48.168Z,6344.00
2019-05-25T09:33:48.096Z,6412.00
2019-05-25T09:34:48.032Z,6564.00
2019-05-25T09:35:47.954Z,6748.00
2019-05-25T09:36:47.885Z,6948.00
2019-05-25T09:37:47.812Z,7000.00
2019-05-25T09:38:47.742Z,7076.00
2019-05-25T09:39:47.681Z,7096.00
2019-05-25T09:40:47.599Z,7172.00
2019-05-25T09:41:47.535Z,7420.00
2019-05-25T09:42:47.474Z,7988.00
2019-05-25T09:43:47.588Z,8624.00
2019-05-25T09:44:47.324Z,9196.00
2019-05-25T09:45:47.244Z,9940.00
2019-05-25T09:46:47.175Z,10980.00
2019-05-25T09:47:47.103Z,11384.00
2019-05-25T09:48:47.033Z,10288.00
2019-05-25T09:49:46.960Z,9284.00
2019-05-25T09:50:46.891Z,9064.00
2019-05-25T09:51:48.705Z,9476.00
2019-05-25T09:52:46.751Z,9744.00
2019-05-25T09:53:46.678Z,10096.00
2019-05-25T09:54:46.608Z,10216.00
2019-05-25T09:55:46.543Z,10612.00
2019-05-25T09:56:46.471Z,11216.00
2019-05-25T09:57:46.396Z,11176.00
2019-05-25T09:59:28.916Z,10836.00
2019-05-25T10:00:28.752Z,10560.00
2019-05-25T10:01:28.682Z,10572.00
2019-05-25T10:02:28.606Z,10960.00
2019-05-25T10:03:28.532Z,11128.00
2019-05-25T10:04:28.463Z,10868.00
2019-05-25T10:05:28.391Z,10324.00
2019-05-25T10:06:28.319Z,10192.00
2019-05-25T10:07:28.249Z,10452.00
2019-05-25T10:08:28.177Z,10868.00
2019-05-25T10:09:28.106Z,10560.00
2019-05-25T10:10:28.034Z,10444.00
2019-05-25T10:11:27.964Z,10820.00
2019-05-25T10:12:27.892Z,11540.00
2019-05-25T10:13:27.822Z,11448.00
2019-05-25T10:14:27.749Z,10696.00
2019-05-25T10:15:28.458Z,10364.00
2019-05-25T10:16:27.608Z,11496.00
2019-05-25T10:17:27.534Z,12408.00
2019-05-25T10:19:27.396Z,10296.00
2019-05-25T10:20:27.320Z,10488.00
2019-05-25T10:21:27.250Z,10272.00
2019-05-25T10:22:27.178Z,10716.00
2019-05-25T10:23:27.136Z,10872.00
2019-05-25T10:24:27.037Z,10848.00
2019-05-25T10:25:26.965Z,10688.00
2019-05-25T10:26:26.895Z,10764.00
2019-05-25T10:27:26.825Z,11084.00
2019-05-25T10:28:26.754Z,11028.00
2019-05-25T10:29:36.472Z,10700.00
2019-05-25T10:30:26.613Z,10752.00
2019-05-25T10:31:26.542Z,10860.00
2019-05-25T10:32:26.502Z,10864.00
2019-05-25T10:33:26.404Z,11076.00
2019-05-25T10:34:26.335Z,11204.00
2019-05-25T10:35:26.263Z,11444.00
2019-05-25T10:36:26.292Z,11604.00
2019-05-25T10:37:26.123Z,11792.00
2019-05-25T10:38:26.051Z,11344.00
2019-05-25T10:39:25.981Z,11304.00
2019-05-25T10:40:25.910Z,11364.00
2019-05-25T10:41:25.842Z,11452.00
2019-05-25T10:42:25.767Z,11600.00
2019-05-25T10:43:25.699Z,11984.00
2019-05-25T10:44:25.690Z,12156.00
2019-05-25T10:45:25.603Z,12400.00
2019-05-25T10:46:25.492Z,12728.00
2019-05-25T10:47:25.413Z,13400.00
2019-05-25T10:48:25.341Z,14008.00
2019-05-25T10:49:25.272Z,14644.00
2019-05-25T10:50:25.200Z,15096.00
2019-05-25T10:51:25.129Z,15844.00
2019-05-25T10:52:25.059Z,16516.00
2019-05-25T10:53:24.988Z,16708.00
2019-05-25T10:54:24.917Z,16212.00
2019-05-25T10:55:24.846Z,16864.00
2019-05-25T10:56:24.776Z,17792.00
2019-05-25T10:57:24.706Z,17600.00
2019-05-25T10:58:24.633Z,15972.00
2019-05-25T10:59:24.563Z,14272.00
2019-05-25T11:00:27.176Z,12892.00
2019-05-25T11:01:24.429Z,9692.00
2019-05-25T11:02:24.357Z,7324.00
2019-05-25T11:03:24.280Z,6772.00
2019-05-25T11:04:24.212Z,6628.00
2019-05-25T11:05:24.141Z,6952.00
2019-05-25T11:06:24.069Z,8148.00
2019-05-25T11:07:24.000Z,10596.00
2019-05-25T11:08:23.931Z,15164.00
2019-05-25T11:09:23.860Z,17420.00
2019-05-25T11:10:23.790Z,32992.00
2019-05-25T11:11:23.721Z,63392.00
2019-05-25T11:12:26.023Z,28832.00
2019-05-25T11:13:23.581Z,30112.00
2019-05-25T11:14:23.527Z,34112.00
2019-05-25T11:15:23.446Z,23936.00
2019-05-25T11:16:23.374Z,36672.00
2019-05-25T11:17:23.305Z,20096.00
2019-05-25T11:18:23.262Z,19360.00
2019-05-25T11:19:24.312Z,16236.00
2019-05-25T11:20:23.100Z,19488.00
2019-05-25T11:21:23.043Z,15836.00
2019-05-25T11:22:22.970Z,21440.00
2019-05-25T11:23:22.911Z,21344.00
2019-05-25T11:24:22.827Z,25952.00
2019-05-25T11:25:22.759Z,18012.00
2019-05-25T11:26:22.690Z,19328.00
2019-05-25T11:27:22.624Z,26912.00
2019-05-25T11:28:22.556Z,22752.00
2019-05-25T11:29:22.487Z,21216.00
2019-05-25T11:30:22.420Z,20864.00
2019-05-25T11:31:22.350Z,20832.00
2019-05-25T11:32:22.283Z,27360.00
2019-05-25T11:33:22.215Z,19584.00
2019-05-25T11:34:22.155Z,14212.00
2019-05-25T11:35:22.079Z,57472.00
2019-05-25T11:36:22.010Z,66912.00
2019-05-25T11:38:04.433Z,33856.00
2019-05-25T11:39:06.988Z,67840.00
2019-05-25T11:40:04.301Z,85312.00
2019-05-25T11:41:05.446Z,76288.00
2019-05-25T11:42:04.164Z,95648.00
2019-05-25T11:43:04.100Z,99904.00
2019-05-25T11:45:03.964Z,90528.00
2019-05-25T11:46:03.898Z,90016.00
2019-05-25T11:47:04.513Z,78368.00
2019-05-25T11:48:03.770Z,66432.00
2019-05-25T11:49:03.704Z,69280.00
2019-05-25T11:50:03.637Z,89088.00
2019-05-25T11:52:03.511Z,91744.00
2019-05-25T11:53:06.288Z,87072.00
2019-05-25T11:54:03.385Z,95840.00
2019-05-25T11:55:03.417Z,100480.00
2019-05-25T11:56:03.254Z,103168.00
2019-05-25T11:57:03.189Z,101920.00
2019-05-25T11:58:03.161Z,102112.00
2019-05-25T11:59:03.064Z,102720.00
2019-05-25T12:00:05.625Z,97760.00
2019-05-25T12:01:02.942Z,89248.00
2019-05-25T12:02:50.378Z,48096.00
2019-05-25T12:03:50.317Z,93408.00
2019-05-25T12:04:50.256Z,93088.00
2019-05-25T12:05:50.193Z,25024.00
2019-05-25T12:06:50.138Z,28896.00
2019-05-25T12:07:50.072Z,68288.00
2019-05-25T12:08:50.011Z,64000.00
2019-05-25T12:09:49.949Z,50688.00
2019-05-25T12:10:49.916Z,44800.00
2019-05-25T12:11:49.827Z,26144.00
2019-05-25T12:12:49.766Z,38720.00
2019-05-25T12:13:49.703Z,49568.00
2019-05-25T12:14:49.643Z,28736.00
2019-05-25T12:15:49.783Z,52736.00
2019-05-25T12:16:49.518Z,60768.00
2019-05-25T12:17:49.456Z,58432.00
2019-05-25T12:18:49.394Z,58624.00
2019-05-25T12:19:49.332Z,61376.00
2019-05-25T12:20:49.266Z,70592.00
2019-05-25T12:21:49.205Z,73664.00
2019-05-25T12:22:49.142Z,80704.00
2019-05-25T12:23:49.109Z,85248.00
2019-05-25T12:24:49.018Z,80576.00
2019-05-25T12:25:48.966Z,86528.00
2019-05-25T12:27:49.707Z,96864.00